Airfield :
LOGIN :

Register | Disclaimer

   EN    FR    IT 

 










Legend :    VFR   Marginal VFR   IFR   Intensive IFR   Very Intensive IFR
Visi :
Ceiling :
>= 8 km
>= 3000ft
5 to 8 km
1000 to 3000 ft
1500m to 5 km
500 to 1000 ft
800 to 1500m
200 to 500 ft
< 800m
< 200 ft
Symbols :   Thunderstorms  Fog  Heavy snow  Heavy precipitations  Wind > 20 kt
SIGMETs :     Misc.  Thunderstorms  Icing  Turbulence  Mountain Waves  Volcanic Ashes







- Airport Elevation : 33 ft
- IATA code : MHZ


EGUN - RAF Mildenhall

CURRENT METAR :
  • 160756Z AUTO 29008KT 9999 CLR M01/M01 A2996 RMK AO2 SLP149 T10091009 $

EXPIRED METARs :
  • 160656Z AUTO 28007KT 9999 CLR M02/M02 A2994 RMK AO2 SLP142 T10201020 .
  • 160556Z AUTO 29006KT 9999 CLR M02/M02 A2992 RMK AO2 SLP136 T10251025 10015 21025 52014 .

TAF TAF EGUN
Valid from the 16 at 04:00 until the 17 at 10:00 UTC


160401Z 1604/1710 30009KT 9999 FEW050 QNH2988INS
TEMPO 1609/1615 28012G18KT
BECMG 1622/1623 30006KT 5000 BR SCT020 QNH3015INS
BECMG 1708/1709 20006KT 8000 -SHRA BKN020 QNH3021INS TX04/1612Z TNM02/1703Z
No reported NOTAMs for that airfield.



MET'MAP, your aeronautical weather chart ! - Copyright ORBIFLY December 2007 - Disclaimer

ORBIFLY MET'MAP TEAM :

Programming & Development : Alexandra Zaïnal
Concept & Development : Baudouin d'Aumeries
Co-Development & Prog : Marc-Olivier Méhu
Technical & hardware support : Manuel Goepfert

Contact : metmap@orbifly.com




SOURCES & CREDITS :

   NOAA